createdAt,value
2023-05-12T00:00:04.715Z,50.41
2023-05-12T00:01:34.545Z,50.34
2023-05-12T00:02:37.503Z,50.39
2023-05-12T00:03:41.214Z,50.44
2023-05-12T00:04:44.323Z,50.41
2023-05-12T00:05:47.271Z,50.44
2023-05-12T00:06:50.093Z,50.42
2023-05-12T00:07:52.999Z,50.48
2023-05-12T00:08:55.873Z,50.59
2023-05-12T00:09:58.756Z,50.54
2023-05-12T00:11:01.676Z,50.70
2023-05-12T00:12:04.906Z,50.73
2023-05-12T00:13:09.085Z,50.70
2023-05-12T00:14:11.914Z,50.88
2023-05-12T00:15:14.887Z,51.00
2023-05-12T00:16:18.967Z,50.89
2023-05-12T00:17:22.318Z,50.82
2023-05-12T00:18:26.066Z,51.00
2023-05-12T00:19:28.991Z,50.85
2023-05-12T00:20:31.903Z,51.04
2023-05-12T00:21:34.863Z,50.90
2023-05-12T00:22:37.699Z,50.83
2023-05-12T00:23:40.548Z,50.88
2023-05-12T00:24:43.455Z,50.97
2023-05-12T00:25:46.299Z,51.10
2023-05-12T00:26:49.160Z,51.05
2023-05-12T00:27:52.165Z,51.36
2023-05-12T00:28:55.069Z,51.34
2023-05-12T00:29:58.996Z,51.26
2023-05-12T00:31:03.792Z,51.19
2023-05-12T00:32:07.171Z,51.42
2023-05-12T00:33:10.186Z,51.35
2023-05-12T00:34:13.082Z,51.23
2023-05-12T00:35:17.144Z,51.41
2023-05-12T00:36:20.029Z,51.51
2023-05-12T00:37:23.399Z,51.47
2023-05-12T00:38:26.760Z,51.50
2023-05-12T00:39:29.684Z,51.48
2023-05-12T00:40:32.612Z,51.41
2023-05-12T00:41:35.505Z,51.32
2023-05-12T00:42:38.924Z,51.45
2023-05-12T00:43:42.607Z,51.41
2023-05-12T00:44:45.576Z,51.46
2023-05-12T00:45:48.690Z,51.79
2023-05-12T00:46:53.243Z,51.82
2023-05-12T00:47:57.138Z,51.87
2023-05-12T00:49:00.212Z,51.88
2023-05-12T00:50:05.467Z,51.98
2023-05-12T00:51:08.884Z,52.03
2023-05-12T00:52:11.877Z,51.98
2023-05-12T00:53:14.789Z,51.92
2023-05-12T00:54:17.732Z,51.99
2023-05-12T00:55:20.746Z,52.12
2023-05-12T00:56:23.877Z,51.96
2023-05-12T00:57:27.983Z,52.05
2023-05-12T00:58:32.266Z,52.19
2023-05-12T00:59:35.468Z,51.99
2023-05-12T01:00:38.405Z,51.94
2023-05-12T01:01:41.717Z,52.13
2023-05-12T01:02:49.522Z,52.23
2023-05-12T01:03:52.932Z,52.04
2023-05-12T01:04:56.166Z,52.06
2023-05-12T01:06:27.014Z,52.17
2023-05-12T01:07:33.013Z,52.35
2023-05-12T01:08:37.053Z,52.44
2023-05-12T01:09:40.225Z,52.37
2023-05-12T01:10:47.172Z,52.44
2023-05-12T01:11:52.302Z,52.58
2023-05-12T01:12:55.476Z,52.61
2023-05-12T01:13:58.386Z,52.66
2023-05-12T01:15:01.564Z,52.71
2023-05-12T01:16:09.586Z,52.72
2023-05-12T01:17:13.863Z,52.59
2023-05-12T01:18:20.730Z,52.68
2023-05-12T01:19:42.856Z,52.96
2023-05-12T01:20:48.195Z,52.86
2023-05-12T01:21:51.320Z,52.94
2023-05-12T01:22:55.730Z,52.92
2023-05-12T01:24:06.650Z,52.95
2023-05-12T01:25:12.128Z,52.83
2023-05-12T01:26:15.452Z,53.09
2023-05-12T01:27:20.936Z,52.93
2023-05-12T01:28:24.391Z,53.14
2023-05-12T01:29:28.539Z,53.18
2023-05-12T01:30:32.271Z,53.10
2023-05-12T01:31:35.871Z,53.37
2023-05-12T01:32:40.479Z,53.49
2023-05-12T01:33:43.989Z,53.38
2023-05-12T01:34:47.028Z,53.16
2023-05-12T01:35:50.561Z,53.43
2023-05-12T01:36:54.131Z,53.38
2023-05-12T01:37:57.236Z,53.41
2023-05-12T01:39:00.132Z,53.33
2023-05-12T01:40:03.217Z,53.45
2023-05-12T01:41:06.064Z,53.38
2023-05-12T01:42:09.501Z,53.30
2023-05-12T01:43:12.391Z,53.27
2023-05-12T01:44:16.142Z,53.51
2023-05-12T01:45:19.210Z,53.46
2023-05-12T01:46:22.899Z,53.49
2023-05-12T01:47:26.297Z,53.47
2023-05-12T01:48:41.817Z,53.53
2023-05-12T01:49:45.770Z,53.69
2023-05-12T01:50:51.596Z,53.57
2023-05-12T01:51:56.963Z,53.52
2023-05-12T01:53:05.802Z,53.61
2023-05-12T01:54:08.978Z,53.60
2023-05-12T01:55:14.200Z,53.70
2023-05-12T01:56:29.297Z,53.82
2023-05-12T01:57:32.966Z,53.97
2023-05-12T01:58:37.079Z,53.78
2023-05-12T02:00:00.875Z,53.80
2023-05-12T02:01:04.857Z,53.88
2023-05-12T02:02:07.977Z,53.89
2023-05-12T02:03:11.033Z,54.00
2023-05-12T02:04:15.384Z,53.88
2023-05-12T02:05:20.310Z,54.10
2023-05-12T02:06:26.102Z,54.17
2023-05-12T02:07:29.052Z,54.05
2023-05-12T02:08:32.056Z,54.01
2023-05-12T02:09:35.089Z,53.98
2023-05-12T02:10:38.125Z,54.11
2023-05-12T02:11:41.106Z,54.44
2023-05-12T02:12:44.339Z,54.29
2023-05-12T02:13:47.396Z,54.45
2023-05-12T02:14:50.715Z,54.25
2023-05-12T02:15:53.790Z,54.46
2023-05-12T02:16:56.972Z,54.36
2023-05-12T02:18:00.676Z,54.49
2023-05-12T02:19:04.240Z,54.45
2023-05-12T02:20:08.860Z,54.47
2023-05-12T02:21:11.768Z,54.60
2023-05-12T02:22:14.635Z,54.58
2023-05-12T02:23:19.404Z,54.52
2023-05-12T02:24:22.540Z,54.50
2023-05-12T02:25:25.937Z,54.50
2023-05-12T02:26:28.787Z,54.76
2023-05-12T02:27:32.607Z,54.67
2023-05-12T02:28:36.583Z,54.78
2023-05-12T02:29:42.121Z,54.86
2023-05-12T02:30:50.296Z,55.01
2023-05-12T02:31:53.213Z,55.08
2023-05-12T02:32:56.525Z,55.04
2023-05-12T02:33:59.763Z,55.06
2023-05-12T02:35:02.828Z,55.22
2023-05-12T02:36:06.101Z,55.15
2023-05-12T02:37:08.984Z,55.20
2023-05-12T02:38:12.563Z,55.28
2023-05-12T02:39:15.698Z,55.46
2023-05-12T02:40:18.935Z,55.38
2023-05-12T02:41:22.528Z,55.24
2023-05-12T02:42:28.901Z,55.32
2023-05-12T02:43:32.189Z,55.24
2023-05-12T02:44:35.123Z,55.10
2023-05-12T02:45:38.345Z,55.26
2023-05-12T02:46:41.247Z,55.52
2023-05-12T02:47:44.743Z,55.46
2023-05-12T02:48:48.063Z,55.46
2023-05-12T02:49:50.943Z,55.71
2023-05-12T02:50:54.094Z,55.63
2023-05-12T02:51:56.955Z,55.45
2023-05-12T02:52:59.901Z,55.57
2023-05-12T02:54:03.287Z,55.94
2023-05-12T02:55:06.421Z,55.95
2023-05-12T02:56:09.292Z,55.69
2023-05-12T02:57:12.910Z,55.98
2023-05-12T02:58:15.910Z,55.97
2023-05-12T02:59:18.875Z,56.06
2023-05-12T03:00:22.243Z,56.05
2023-05-12T03:01:25.224Z,56.12
2023-05-12T03:02:28.329Z,56.19
2023-05-12T03:03:32.705Z,56.08
2023-05-12T03:04:35.813Z,56.11
2023-05-12T03:05:39.353Z,56.03
2023-05-12T03:06:42.289Z,56.03
2023-05-12T03:07:45.441Z,56.16
2023-05-12T03:08:48.348Z,56.25
2023-05-12T03:09:51.701Z,56.09
2023-05-12T03:10:54.581Z,56.24
2023-05-12T03:11:57.469Z,56.24
2023-05-12T03:13:00.366Z,56.10
2023-05-12T03:14:03.655Z,56.41
2023-05-12T03:15:07.050Z,56.46
2023-05-12T03:16:09.998Z,56.59
2023-05-12T03:17:12.966Z,56.56
2023-05-12T03:18:16.747Z,56.37
2023-05-12T03:19:19.619Z,56.49
2023-05-12T03:20:22.682Z,56.57
2023-05-12T03:21:25.983Z,56.47
2023-05-12T03:22:29.204Z,56.59
2023-05-12T03:23:33.253Z,56.61
2023-05-12T03:24:36.908Z,56.65
2023-05-12T03:25:41.076Z,56.74
2023-05-12T03:26:43.957Z,56.59
2023-05-12T03:27:47.678Z,56.56
2023-05-12T03:28:50.525Z,56.65
2023-05-12T03:29:53.413Z,56.72
2023-05-12T03:30:56.309Z,56.64
2023-05-12T03:31:59.427Z,56.63
2023-05-12T03:33:02.702Z,56.54
2023-05-12T03:34:06.344Z,56.55
2023-05-12T03:35:09.544Z,56.52
2023-05-12T03:36:12.714Z,56.41
2023-05-12T03:37:16.269Z,56.55
2023-05-12T03:38:20.123Z,56.60
2023-05-12T03:39:24.965Z,56.73
2023-05-12T03:40:27.969Z,56.49
2023-05-12T03:41:30.885Z,56.68
2023-05-12T03:42:33.731Z,56.77
2023-05-12T03:43:36.760Z,56.84
2023-05-12T03:44:39.743Z,57.09
2023-05-12T03:45:42.804Z,56.91
2023-05-12T03:46:46.110Z,56.89
2023-05-12T03:47:49.931Z,56.83
2023-05-12T03:48:53.347Z,56.97
2023-05-12T03:49:56.247Z,56.94
2023-05-12T03:50:59.228Z,56.94
2023-05-12T03:52:02.170Z,56.92
2023-05-12T03:53:05.087Z,56.88
2023-05-12T03:54:07.995Z,56.88
2023-05-12T03:55:10.959Z,56.85
2023-05-12T03:56:15.739Z,56.96
2023-05-12T03:57:18.593Z,56.88
2023-05-12T03:58:24.218Z,56.80
2023-05-12T03:59:27.121Z,56.98
2023-05-12T04:00:29.992Z,57.00
2023-05-12T04:01:32.945Z,56.93
2023-05-12T04:02:37.459Z,56.98
2023-05-12T04:03:41.727Z,57.03
2023-05-12T04:04:44.884Z,56.79
2023-05-12T04:05:47.840Z,56.80
2023-05-12T04:06:51.265Z,56.80
2023-05-12T04:07:54.746Z,56.87
2023-05-12T04:08:57.650Z,56.93
2023-05-12T04:10:00.698Z,56.71
2023-05-12T04:11:04.180Z,56.94
2023-05-12T04:12:07.290Z,56.91
2023-05-12T04:13:10.241Z,56.82
2023-05-12T04:14:13.195Z,56.75
2023-05-12T04:15:16.151Z,56.72
2023-05-12T04:16:19.071Z,56.61
2023-05-12T04:17:22.010Z,56.87
2023-05-12T04:18:28.486Z,56.67
2023-05-12T04:19:31.458Z,56.69
2023-05-12T04:20:34.335Z,56.76
2023-05-12T04:21:37.514Z,56.71
2023-05-12T04:22:40.577Z,56.61
2023-05-12T04:23:43.540Z,56.73
2023-05-12T04:24:46.380Z,56.64
2023-05-12T04:25:49.280Z,56.44
2023-05-12T04:26:52.203Z,56.43
2023-05-12T04:27:55.131Z,56.57
2023-05-12T04:28:58.381Z,56.50
2023-05-12T04:30:01.751Z,56.54
2023-05-12T04:31:07.859Z,56.49
2023-05-12T04:32:12.163Z,56.69
2023-05-12T04:33:15.162Z,56.51
2023-05-12T04:34:18.214Z,56.40
2023-05-12T04:35:21.248Z,56.51
2023-05-12T04:36:24.112Z,56.58
2023-05-12T04:37:27.376Z,56.42
2023-05-12T04:38:30.628Z,56.51
2023-05-12T04:39:33.730Z,56.48
2023-05-12T04:40:36.642Z,56.20
2023-05-12T04:41:39.637Z,56.31
2023-05-12T04:42:42.857Z,56.18
2023-05-12T04:44:52.554Z,55.76
2023-05-12T04:45:56.185Z,55.83
2023-05-12T04:46:59.972Z,55.66
2023-05-12T04:48:02.917Z,55.72
2023-05-12T04:49:05.945Z,55.80
2023-05-12T04:50:10.792Z,55.73
2023-05-12T04:51:13.783Z,55.30
2023-05-12T04:52:16.721Z,55.50
2023-05-12T04:53:19.594Z,55.38
2023-05-12T04:54:22.500Z,55.22
2023-05-12T04:55:25.560Z,55.42
2023-05-12T04:56:28.436Z,55.08
2023-05-12T04:57:31.528Z,55.18
2023-05-12T04:58:34.872Z,55.01
2023-05-12T04:59:39.942Z,55.15
2023-05-12T05:00:44.141Z,55.18
2023-05-12T05:01:47.268Z,55.28
2023-05-12T05:02:50.710Z,54.93
2023-05-12T05:03:53.912Z,54.83
2023-05-12T05:04:57.103Z,54.78
2023-05-12T05:06:01.280Z,54.78
2023-05-12T05:07:04.466Z,54.56
2023-05-12T05:08:08.028Z,54.73
2023-05-12T05:09:11.358Z,54.90
2023-05-12T05:10:14.485Z,54.62
2023-05-12T05:11:19.547Z,54.44
2023-05-12T05:12:22.573Z,54.29
2023-05-12T05:13:25.537Z,54.33
2023-05-12T05:14:28.540Z,54.14
2023-05-12T05:15:32.651Z,54.27
2023-05-12T05:16:35.740Z,54.04
2023-05-12T05:17:38.799Z,54.15
2023-05-12T05:18:46.729Z,53.84
2023-05-12T05:19:55.978Z,53.81
2023-05-12T05:21:01.885Z,53.58
2023-05-12T05:22:05.277Z,53.54
2023-05-12T05:23:09.100Z,53.72
2023-05-12T05:24:12.047Z,53.75
2023-05-12T05:25:15.390Z,53.74
2023-05-12T05:26:18.244Z,53.56
2023-05-12T05:27:21.124Z,53.53
2023-05-12T05:28:24.166Z,53.38
2023-05-12T05:29:28.662Z,53.17
2023-05-12T05:30:31.685Z,53.05
2023-05-12T05:31:36.129Z,53.10
2023-05-12T05:32:40.521Z,52.98
2023-05-12T05:33:44.544Z,52.94
2023-05-12T05:34:47.563Z,52.86
2023-05-12T05:35:50.605Z,53.09
2023-05-12T05:36:53.498Z,52.97
2023-05-12T05:37:56.876Z,52.96
2023-05-12T05:39:00.640Z,53.13
2023-05-12T05:40:03.934Z,52.92
2023-05-12T05:41:07.180Z,52.85
2023-05-12T05:42:10.751Z,52.65
2023-05-12T05:43:14.331Z,52.33
2023-05-12T05:44:17.266Z,52.33
2023-05-12T05:45:21.187Z,52.34
2023-05-12T05:46:25.037Z,52.39
2023-05-12T05:47:28.524Z,52.52
2023-05-12T05:48:31.777Z,52.58
2023-05-12T05:49:34.616Z,52.49
2023-05-12T05:50:38.222Z,52.33
2023-05-12T05:51:41.483Z,52.19
2023-05-12T05:52:44.783Z,52.09
2023-05-12T05:53:48.088Z,52.17
2023-05-12T05:54:51.746Z,52.10
2023-05-12T05:55:55.627Z,51.88
2023-05-12T05:57:02.812Z,51.98
2023-05-12T05:58:06.412Z,51.99
2023-05-12T05:59:09.908Z,51.75
2023-05-12T06:00:14.382Z,51.75
2023-05-12T06:01:19.431Z,51.72
2023-05-12T06:02:25.169Z,51.72
2023-05-12T06:03:28.752Z,51.78
2023-05-12T06:04:31.636Z,51.67
2023-05-12T06:05:34.749Z,51.50
2023-05-12T06:06:37.835Z,51.27
2023-05-12T06:07:41.530Z,51.33
2023-05-12T06:08:45.842Z,51.34
2023-05-12T06:09:48.771Z,51.29
2023-05-12T06:10:51.818Z,50.93
2023-05-12T06:11:54.970Z,51.19
2023-05-12T06:12:57.875Z,50.92
2023-05-12T06:14:00.777Z,50.71
2023-05-12T06:15:03.752Z,50.26
2023-05-12T06:16:06.737Z,49.93
2023-05-12T06:17:09.953Z,49.83
2023-05-12T06:18:12.797Z,49.95
2023-05-12T06:19:15.899Z,49.67
2023-05-12T06:20:18.830Z,49.72
2023-05-12T06:21:22.809Z,49.87
2023-05-12T06:22:25.685Z,49.48
2023-05-12T06:23:28.530Z,48.97
2023-05-12T06:24:31.702Z,48.93
2023-05-12T06:25:34.607Z,48.57
2023-05-12T06:26:37.671Z,48.88
2023-05-12T06:27:40.689Z,49.03
2023-05-12T06:28:43.567Z,49.23
2023-05-12T06:29:46.499Z,48.83
2023-05-12T06:30:49.362Z,49.07
2023-05-12T06:31:53.709Z,48.94
2023-05-12T06:32:56.743Z,48.75
2023-05-12T06:34:00.068Z,48.22
2023-05-12T06:35:03.001Z,47.26
2023-05-12T06:36:06.640Z,47.67
2023-05-12T06:37:09.514Z,47.71
2023-05-12T06:38:12.825Z,47.73
2023-05-12T06:39:16.115Z,47.72
2023-05-12T06:40:19.935Z,47.28
2023-05-12T06:41:25.506Z,46.56
2023-05-12T06:42:28.496Z,45.75
2023-05-12T06:43:32.384Z,45.67
2023-05-12T06:44:35.910Z,46.37
2023-05-12T06:45:39.799Z,46.34
2023-05-12T06:46:44.493Z,46.04
2023-05-12T06:47:47.489Z,45.75
2023-05-12T06:48:50.388Z,46.26
2023-05-12T06:49:53.243Z,45.88
2023-05-12T06:50:56.084Z,45.83
2023-05-12T06:52:07.545Z,45.22
2023-05-12T06:53:10.385Z,44.71
2023-05-12T06:54:13.348Z,44.60
2023-05-12T06:55:20.039Z,44.53
2023-05-12T06:56:23.347Z,44.34
2023-05-12T06:57:28.075Z,44.19
2023-05-12T06:58:30.992Z,44.09
2023-05-12T06:59:37.285Z,44.03
2023-05-12T07:00:40.473Z,44.24
2023-05-12T07:01:43.884Z,44.11
2023-05-12T07:02:46.900Z,44.05
2023-05-12T07:03:49.869Z,43.71
2023-05-12T07:04:52.790Z,43.33
2023-05-12T07:05:56.089Z,43.47
2023-05-12T07:06:58.971Z,42.98
2023-05-12T07:08:01.924Z,42.76
2023-05-12T07:09:05.313Z,43.06
2023-05-12T07:10:08.846Z,43.15
2023-05-12T07:11:11.760Z,42.84
2023-05-12T07:12:14.658Z,42.62
2023-05-12T07:13:17.623Z,43.02
2023-05-12T07:14:20.575Z,41.42
2023-05-12T07:15:23.652Z,41.55
2023-05-12T07:16:26.768Z,41.86
2023-05-12T07:17:29.714Z,41.96
2023-05-12T07:18:32.677Z,41.76
2023-05-12T07:19:35.704Z,41.92
2023-05-12T07:20:39.082Z,41.34
2023-05-12T07:21:42.257Z,40.39
2023-05-12T07:22:45.200Z,40.93
2023-05-12T07:23:48.257Z,41.18
2023-05-12T07:24:51.276Z,40.97
2023-05-12T07:25:54.395Z,41.13
2023-05-12T07:26:57.272Z,40.80
2023-05-12T07:28:00.239Z,40.70
2023-05-12T07:29:04.089Z,40.99
2023-05-12T07:30:07.757Z,40.46
2023-05-12T07:31:10.759Z,38.69
2023-05-12T07:32:13.686Z,39.57
2023-05-12T07:33:17.098Z,39.49
2023-05-12T07:34:19.916Z,39.82
2023-05-12T07:35:23.002Z,39.84
2023-05-12T07:36:25.978Z,40.06
2023-05-12T07:37:28.839Z,39.92
2023-05-12T07:38:32.274Z,40.19
2023-05-12T07:39:35.167Z,39.97
2023-05-12T07:40:37.976Z,40.05
2023-05-12T07:41:41.268Z,39.82
2023-05-12T07:42:44.167Z,38.80
2023-05-12T07:43:46.998Z,38.73
2023-05-12T07:44:49.919Z,38.96
2023-05-12T07:45:52.943Z,38.80
2023-05-12T07:46:55.866Z,39.01
2023-05-12T07:47:58.911Z,38.70
2023-05-12T07:49:02.648Z,38.03
2023-05-12T07:50:07.158Z,37.88
2023-05-12T07:51:10.199Z,37.60
2023-05-12T07:52:13.168Z,37.52
2023-05-12T07:53:16.056Z,37.60
2023-05-12T07:54:18.867Z,37.72
2023-05-12T07:55:23.103Z,38.20
2023-05-12T07:56:26.081Z,38.11
2023-05-12T07:57:29.316Z,37.52
2023-05-12T07:58:32.159Z,37.62
2023-05-12T07:59:34.994Z,38.19
2023-05-12T08:00:38.247Z,37.85
2023-05-12T08:01:41.396Z,36.83
2023-05-12T08:02:44.984Z,37.01
2023-05-12T08:03:48.144Z,36.98
2023-05-12T08:04:51.640Z,37.29
2023-05-12T08:05:54.679Z,37.44
2023-05-12T08:06:57.500Z,37.02
2023-05-12T08:08:00.444Z,36.63
2023-05-12T08:09:03.516Z,36.45
2023-05-12T08:10:06.988Z,36.56
2023-05-12T08:11:11.505Z,37.01
2023-05-12T08:12:14.547Z,36.79
2023-05-12T08:13:17.367Z,36.37
2023-05-12T08:14:20.231Z,36.18
2023-05-12T08:15:23.183Z,36.01
2023-05-12T08:16:26.272Z,36.57
2023-05-12T08:17:29.413Z,36.52
2023-05-12T08:18:32.487Z,36.75
2023-05-12T08:19:35.456Z,36.60
2023-05-12T08:20:38.335Z,36.15
2023-05-12T08:21:41.196Z,36.02
2023-05-12T08:22:44.720Z,35.20
2023-05-12T08:23:47.587Z,34.30
2023-05-12T08:24:50.546Z,34.78
2023-05-12T08:25:53.522Z,35.50
2023-05-12T08:26:56.498Z,34.86
2023-05-12T08:27:59.916Z,34.79
2023-05-12T08:29:02.753Z,35.28
2023-05-12T08:30:06.234Z,34.62
2023-05-12T08:31:09.456Z,34.37
2023-05-12T08:32:12.680Z,34.76
2023-05-12T08:33:15.678Z,34.66
2023-05-12T08:34:18.637Z,34.37
2023-05-12T08:35:21.926Z,34.90
2023-05-12T08:36:24.966Z,33.71
2023-05-12T08:37:28.079Z,33.00
2023-05-12T08:38:32.435Z,32.76
2023-05-12T08:39:35.642Z,33.16
2023-05-12T08:40:56.919Z,32.79
2023-05-12T08:42:21.620Z,33.59
2023-05-12T08:43:26.682Z,33.04
2023-05-12T08:44:30.259Z,32.63
2023-05-12T08:45:37.081Z,32.60
2023-05-12T08:46:40.887Z,33.27
2023-05-12T08:47:46.158Z,33.65
2023-05-12T08:48:52.246Z,34.08
2023-05-12T08:50:01.037Z,34.21
2023-05-12T08:51:10.017Z,34.17
2023-05-12T08:52:15.112Z,34.32
2023-05-12T08:53:19.294Z,34.17
2023-05-12T08:54:22.812Z,33.85
2023-05-12T08:55:31.817Z,33.09
2023-05-12T08:57:48.430Z,32.70
2023-05-12T08:58:51.946Z,32.18
2023-05-12T08:59:56.472Z,32.84
2023-05-12T09:01:00.759Z,32.94
2023-05-12T09:02:05.739Z,32.63
2023-05-12T09:03:09.025Z,32.73
2023-05-12T09:04:12.012Z,32.48
2023-05-12T09:05:15.763Z,31.36
2023-05-12T09:06:18.884Z,31.15
2023-05-12T09:07:24.676Z,30.62
2023-05-12T09:08:30.000Z,31.05
2023-05-12T09:09:34.523Z,30.96
2023-05-12T09:10:37.725Z,31.63
2023-05-12T09:11:41.778Z,31.77
2023-05-12T09:12:47.708Z,31.95
2023-05-12T09:14:10.231Z,32.23
2023-05-12T09:15:22.744Z,31.32
2023-05-12T09:16:29.502Z,31.73
2023-05-12T09:17:32.451Z,31.25
2023-05-12T09:18:56.689Z,31.30
2023-05-12T09:19:59.632Z,31.36
2023-05-12T09:21:02.476Z,31.00
2023-05-12T09:22:06.144Z,31.06
2023-05-12T09:23:20.366Z,30.32
2023-05-12T09:24:37.813Z,30.59
2023-05-12T09:25:40.797Z,30.91
2023-05-12T09:26:51.403Z,31.16
2023-05-12T09:27:56.816Z,31.27
2023-05-12T09:29:08.476Z,30.37
2023-05-12T09:30:12.088Z,28.87
2023-05-12T09:31:19.978Z,29.17
2023-05-12T09:32:34.554Z,30.29
2023-05-12T09:33:37.486Z,28.77
2023-05-12T09:34:41.667Z,29.54
2023-05-12T09:35:46.258Z,28.61
2023-05-12T09:37:00.169Z,29.35
2023-05-12T09:38:17.040Z,29.38
2023-05-12T09:39:19.883Z,29.65
2023-05-12T09:40:22.736Z,30.37
2023-05-12T09:41:25.748Z,30.06
2023-05-12T09:42:30.718Z,28.46
2023-05-12T09:43:33.547Z,28.86
2023-05-12T09:44:39.272Z,28.81
2023-05-12T09:45:44.106Z,29.02
2023-05-12T09:46:48.562Z,28.92
2023-05-12T09:47:51.470Z,28.83
2023-05-12T09:48:58.537Z,29.38
2023-05-12T09:50:03.584Z,29.45
2023-05-12T09:51:10.925Z,29.04
2023-05-12T09:52:13.767Z,29.42
2023-05-12T09:53:20.560Z,29.23
2023-05-12T09:54:28.439Z,28.50
2023-05-12T09:55:32.459Z,29.06
2023-05-12T09:56:38.269Z,28.36
2023-05-12T09:57:43.917Z,28.58
2023-05-12T09:58:48.621Z,28.67
2023-05-12T09:59:53.610Z,28.44
2023-05-12T10:02:06.179Z,28.05
2023-05-12T10:03:14.742Z,28.15
2023-05-12T10:04:17.842Z,28.24
2023-05-12T10:05:22.532Z,28.15
2023-05-12T10:06:31.970Z,28.68
2023-05-12T10:07:35.415Z,28.75
2023-05-12T10:08:47.343Z,27.81
2023-05-12T10:09:50.810Z,28.43
2023-05-12T10:10:56.493Z,28.79
2023-05-12T10:12:00.594Z,29.35
2023-05-12T10:13:04.728Z,29.50
2023-05-12T10:14:09.955Z,29.05
2023-05-12T10:15:13.706Z,29.29
2023-05-12T10:16:16.846Z,28.74
2023-05-12T10:17:20.814Z,28.47
2023-05-12T10:18:25.075Z,28.37
2023-05-12T10:19:30.840Z,28.77
2023-05-12T10:20:35.199Z,28.69
2023-05-12T10:21:39.777Z,28.55
2023-05-12T10:22:44.551Z,27.49
2023-05-12T10:23:48.608Z,27.89
2023-05-12T10:24:51.801Z,27.36
2023-05-12T10:26:02.061Z,27.62
2023-05-12T10:27:06.221Z,27.74
2023-05-12T10:28:10.000Z,27.98
2023-05-12T10:29:13.967Z,28.34
2023-05-12T10:30:17.178Z,28.97
2023-05-12T10:31:21.313Z,28.89
2023-05-12T10:32:24.186Z,28.20
2023-05-12T10:33:27.783Z,26.72
2023-05-12T10:34:34.171Z,27.55
2023-05-12T10:35:39.660Z,27.80
2023-05-12T10:36:48.200Z,27.60
2023-05-12T10:37:51.209Z,27.78
2023-05-12T10:38:54.948Z,27.86
2023-05-12T10:40:01.087Z,28.17
2023-05-12T10:41:06.991Z,28.14
2023-05-12T10:42:10.363Z,28.06
2023-05-12T10:43:26.222Z,27.99
2023-05-12T10:44:29.528Z,27.25
2023-05-12T10:45:36.776Z,26.38
2023-05-12T10:46:39.743Z,26.92
2023-05-12T10:47:43.057Z,27.20
2023-05-12T10:48:57.704Z,27.74
2023-05-12T10:50:00.868Z,28.08
2023-05-12T10:51:09.006Z,28.19
2023-05-12T10:52:13.425Z,28.00
2023-05-12T10:53:16.281Z,27.46
2023-05-12T10:54:22.035Z,27.29
2023-05-12T10:55:32.240Z,27.11
2023-05-12T10:56:41.144Z,27.31
2023-05-12T10:57:52.642Z,27.63
2023-05-12T10:59:13.737Z,27.64
2023-05-12T11:00:22.235Z,27.52
2023-05-12T11:01:26.228Z,27.45
2023-05-12T11:02:32.565Z,26.90
2023-05-12T11:03:37.436Z,26.76
2023-05-12T11:04:42.720Z,26.25
2023-05-12T11:05:46.922Z,26.10
2023-05-12T11:07:01.175Z,25.68
2023-05-12T11:08:05.534Z,25.95
2023-05-12T11:09:12.846Z,26.50
2023-05-12T11:10:17.531Z,26.83
2023-05-12T11:11:22.617Z,26.89
2023-05-12T11:12:28.381Z,26.88
2023-05-12T11:13:31.614Z,26.55
2023-05-12T11:14:36.070Z,26.77
2023-05-12T11:15:39.070Z,26.73
2023-05-12T11:16:45.551Z,26.75
2023-05-12T11:17:48.497Z,26.25
2023-05-12T11:19:02.098Z,26.02
2023-05-12T11:20:05.566Z,24.90
2023-05-12T11:21:14.873Z,24.94
2023-05-12T11:22:21.988Z,25.08
2023-05-12T11:23:32.305Z,25.54
2023-05-12T11:24:37.136Z,26.23
2023-05-12T11:25:41.030Z,26.30
2023-05-12T11:26:45.092Z,25.89
2023-05-12T11:27:51.382Z,26.20
2023-05-12T11:28:55.142Z,25.64
2023-05-12T11:30:00.764Z,25.96
2023-05-12T11:31:04.493Z,25.95
2023-05-12T11:32:10.185Z,25.90
2023-05-12T11:33:13.846Z,26.04
2023-05-12T11:34:21.789Z,26.26
2023-05-12T11:35:30.773Z,26.01
2023-05-12T11:36:42.739Z,25.58
2023-05-12T11:37:46.948Z,25.56
2023-05-12T11:38:53.091Z,26.22
2023-05-12T11:39:56.108Z,26.17
2023-05-12T11:40:59.562Z,26.37
2023-05-12T11:42:12.219Z,26.31
2023-05-12T11:43:22.555Z,26.34
2023-05-12T11:44:26.557Z,25.14
2023-05-12T11:45:30.617Z,25.03
2023-05-12T11:46:33.456Z,25.40
2023-05-12T11:47:36.402Z,24.97
2023-05-12T11:48:39.272Z,24.72
2023-05-12T11:49:54.453Z,25.01
2023-05-12T11:50:57.338Z,25.36
2023-05-12T11:52:02.413Z,25.47
2023-05-12T11:53:05.829Z,24.58
2023-05-12T11:54:09.452Z,24.26
2023-05-12T11:55:12.320Z,24.33
2023-05-12T11:56:20.284Z,24.48
2023-05-12T11:57:30.405Z,23.97
2023-05-12T11:58:36.191Z,24.40
2023-05-12T11:59:39.050Z,24.93
2023-05-12T12:00:42.270Z,24.45
2023-05-12T12:01:48.780Z,24.55
2023-05-12T12:02:51.807Z,24.35
2023-05-12T12:03:56.065Z,24.01
2023-05-12T12:04:59.387Z,24.66
2023-05-12T12:06:06.872Z,23.87
2023-05-12T12:07:09.866Z,23.60
2023-05-12T12:08:15.804Z,24.02
2023-05-12T12:09:18.713Z,23.98
2023-05-12T12:10:21.899Z,24.33
2023-05-12T12:11:30.766Z,24.43
2023-05-12T12:12:33.722Z,23.59
2023-05-12T12:13:36.731Z,23.65
2023-05-12T12:14:41.555Z,23.82
2023-05-12T12:15:44.541Z,23.32
2023-05-12T12:16:47.389Z,23.29
2023-05-12T12:17:50.360Z,22.67
2023-05-12T12:18:54.155Z,23.51
2023-05-12T12:19:57.590Z,23.81
2023-05-12T12:21:00.462Z,23.73
2023-05-12T12:22:03.439Z,23.80
2023-05-12T12:23:06.286Z,23.71
2023-05-12T12:24:09.163Z,23.08
2023-05-12T12:25:12.095Z,23.41
2023-05-12T12:26:20.517Z,23.67
2023-05-12T12:27:23.457Z,23.76
2023-05-12T12:28:26.328Z,23.66
2023-05-12T12:29:29.338Z,22.98
2023-05-12T12:30:32.299Z,22.56
2023-05-12T12:31:36.653Z,22.89
2023-05-12T12:32:39.674Z,23.29
2023-05-12T12:33:43.083Z,23.34
2023-05-12T12:34:46.476Z,23.43
2023-05-12T12:35:49.346Z,23.03
2023-05-12T12:36:52.490Z,22.08
2023-05-12T12:37:55.537Z,21.24
2023-05-12T12:38:59.176Z,21.50
2023-05-12T12:40:08.131Z,21.36
2023-05-12T12:41:11.129Z,21.60
2023-05-12T12:42:14.139Z,21.85
2023-05-12T12:43:17.340Z,21.85
2023-05-12T12:44:20.775Z,22.00
2023-05-12T12:45:23.881Z,21.92
2023-05-12T12:46:27.000Z,21.14
2023-05-12T12:47:30.015Z,21.59
2023-05-12T12:48:33.901Z,21.43
2023-05-12T12:49:36.754Z,21.54
2023-05-12T12:50:39.885Z,21.73
2023-05-12T12:51:46.890Z,21.93
2023-05-12T12:52:50.161Z,22.28
2023-05-12T12:53:53.060Z,22.45
2023-05-12T12:54:57.038Z,22.52
2023-05-12T12:55:59.987Z,21.56
2023-05-12T12:57:02.891Z,21.64
2023-05-12T12:58:05.712Z,21.96
2023-05-12T12:59:08.631Z,21.46
2023-05-12T13:00:12.164Z,21.29
2023-05-12T13:01:15.714Z,20.73
2023-05-12T13:02:18.588Z,20.92
2023-05-12T13:03:21.639Z,20.99
2023-05-12T13:04:24.530Z,21.49
2023-05-12T13:05:27.439Z,21.68
2023-05-12T13:06:30.353Z,20.28
2023-05-12T13:07:33.627Z,20.11
2023-05-12T13:08:36.660Z,20.39
2023-05-12T13:09:39.517Z,20.57
2023-05-12T13:10:42.455Z,21.21
2023-05-12T13:11:45.305Z,21.37
2023-05-12T13:12:48.194Z,21.54
2023-05-12T13:13:51.587Z,21.11
2023-05-12T13:14:54.518Z,21.22
2023-05-12T13:15:57.721Z,21.19
2023-05-12T13:17:00.640Z,21.20
2023-05-12T13:18:03.736Z,21.51
2023-05-12T13:19:06.868Z,21.57
2023-05-12T13:20:10.419Z,21.70
2023-05-12T13:21:13.369Z,21.69
2023-05-12T13:22:16.217Z,22.25
2023-05-12T13:23:19.070Z,22.15
2023-05-12T13:24:21.904Z,21.60
2023-05-12T13:25:24.917Z,21.55
2023-05-12T13:26:27.802Z,21.44
2023-05-12T13:27:30.663Z,21.46
2023-05-12T13:28:33.508Z,21.88
2023-05-12T13:29:37.082Z,22.18
2023-05-12T13:30:40.557Z,21.99
2023-05-12T13:31:43.839Z,22.18
2023-05-12T13:32:47.408Z,22.27
2023-05-12T13:33:50.743Z,22.36
2023-05-12T13:34:53.609Z,21.88
2023-05-12T13:35:57.124Z,22.17
2023-05-12T13:36:59.949Z,22.18
2023-05-12T13:38:02.763Z,22.46
2023-05-12T13:39:05.968Z,22.91
2023-05-12T13:40:09.949Z,23.00
2023-05-12T13:41:12.847Z,22.86
2023-05-12T13:42:17.133Z,23.22
2023-05-12T13:43:20.351Z,23.41
2023-05-12T13:44:23.158Z,23.06
2023-05-12T13:45:26.442Z,22.92
2023-05-12T13:46:29.346Z,23.14
2023-05-12T13:47:32.317Z,23.52
2023-05-12T13:48:35.792Z,23.43
2023-05-12T13:49:39.164Z,23.81
2023-05-12T13:50:42.055Z,23.62